Kettle Falls, Washington
Current Conditions -  °F | °C
As of 8:00 AM on Sunday 25 Jan 2015 (Local Time) from CYCG Reporting Station
Overcast Overcast  
Wind Chill:   Ceiling: 3000
Heat Index:   Visibility: 15mi
Dew Point:   Wind: 7mph
Humidity: 93%   Direction: 160°SSE
Pressure: 30.25"   Gusts: NA
Location:  48.61°N, 118.06°W
Report Text: CYCG 251600Z 16006KT 120V180 15SM SCT004 OVC030 03/02 A3025 RMK SF3SC5 SLP259
Loading
Personal Weather Stations






























Interactive Weather Map New forecast layout! Learn more

10-Day Weather Forecast

Advertisements
Track Severe Weather on mobile